sensor_id;sensor_type;location;lat;lon;timestamp;P1;durP1;ratioP1;P2;durP2;ratioP2
57191;SDS011;43052;52.588;13.396;2023-04-20T00:02:02;13.05;;;8.63;;
57191;SDS011;43052;52.588;13.396;2023-04-20T00:04:28;12.02;;;8.05;;
57191;SDS011;43052;52.588;13.396;2023-04-20T00:06:53;12.73;;;8.57;;
57191;SDS011;43052;52.588;13.396;2023-04-20T00:09:21;12.77;;;7.80;;
57191;SDS011;43052;52.588;13.396;2023-04-20T00:11:46;11.15;;;8.30;;
57191;SDS011;43052;52.588;13.396;2023-04-20T00:14:12;11.15;;;8.07;;
57191;SDS011;43052;52.588;13.396;2023-04-20T00:16:37;11.75;;;8.10;;
57191;SDS011;43052;52.588;13.396;2023-04-20T00:19:02;9.68;;;7.25;;
57191;SDS011;43052;52.588;13.396;2023-04-20T00:21:28;9.88;;;7.38;;
57191;SDS011;43052;52.588;13.396;2023-04-20T00:23:53;11.43;;;7.72;;
57191;SDS011;43052;52.588;13.396;2023-04-20T00:26:18;11.82;;;7.78;;
57191;SDS011;43052;52.588;13.396;2023-04-20T00:28:45;10.43;;;7.75;;
57191;SDS011;43052;52.588;13.396;2023-04-20T00:31:10;11.43;;;8.15;;
57191;SDS011;43052;52.588;13.396;2023-04-20T00:33:35;10.30;;;7.75;;
57191;SDS011;43052;52.588;13.396;2023-04-20T00:36:01;9.68;;;6.95;;
57191;SDS011;43052;52.588;13.396;2023-04-20T00:38:26;12.13;;;8.63;;
57191;SDS011;43052;52.588;13.396;2023-04-20T00:40:53;11.55;;;8.43;;
57191;SDS011;43052;52.588;13.396;2023-04-20T00:43:19;10.75;;;7.65;;
57191;SDS011;43052;52.588;13.396;2023-04-20T00:45:45;10.38;;;7.60;;
57191;SDS011;43052;52.588;13.396;2023-04-20T00:48:10;9.32;;;6.88;;
57191;SDS011;43052;52.588;13.396;2023-04-20T00:50:37;12.52;;;8.15;;
57191;SDS011;43052;52.588;13.396;2023-04-20T00:53:03;10.57;;;7.75;;
57191;SDS011;43052;52.588;13.396;2023-04-20T00:55:30;9.80;;;7.75;;
57191;SDS011;43052;52.588;13.396;2023-04-20T00:57:55;10.23;;;7.50;;
57191;SDS011;43052;52.588;13.396;2023-04-20T01:00:21;11.70;;;8.25;;
57191;SDS011;43052;52.588;13.396;2023-04-20T01:02:46;8.82;;;6.80;;
57191;SDS011;43052;52.588;13.396;2023-04-20T01:05:11;9.93;;;7.30;;
57191;SDS011;43052;52.588;13.396;2023-04-20T01:07:37;9.68;;;7.40;;
57191;SDS011;43052;52.588;13.396;2023-04-20T01:10:02;10.45;;;7.90;;
57191;SDS011;43052;52.588;13.396;2023-04-20T01:12:29;10.13;;;7.80;;
57191;SDS011;43052;52.588;13.396;2023-04-20T01:14:54;9.98;;;7.28;;
57191;SDS011;43052;52.588;13.396;2023-04-20T01:17:19;10.82;;;7.00;;
57191;SDS011;43052;52.588;13.396;2023-04-20T01:19:45;10.32;;;7.18;;
57191;SDS011;43052;52.588;13.396;2023-04-20T01:22:15;8.95;;;7.20;;
57191;SDS011;43052;52.588;13.396;2023-04-20T01:24:44;11.37;;;7.73;;
57191;SDS011;43052;52.588;13.396;2023-04-20T01:27:10;9.45;;;7.55;;
57191;SDS011;43052;52.588;13.396;2023-04-20T01:29:36;9.90;;;6.55;;
57191;SDS011;43052;52.588;13.396;2023-04-20T01:32:01;9.93;;;7.25;;
57191;SDS011;43052;52.588;13.396;2023-04-20T01:34:27;9.88;;;7.50;;
57191;SDS011;43052;52.588;13.396;2023-04-20T01:36:52;9.55;;;6.57;;
57191;SDS011;43052;52.588;13.396;2023-04-20T01:39:17;9.52;;;7.35;;
57191;SDS011;43052;52.588;13.396;2023-04-20T01:41:43;10.35;;;7.45;;
57191;SDS011;43052;52.588;13.396;2023-04-20T01:44:08;11.23;;;7.35;;
57191;SDS011;43052;52.588;13.396;2023-04-20T01:46:37;9.98;;;7.28;;
57191;SDS011;43052;52.588;13.396;2023-04-20T01:49:05;11.07;;;7.68;;
57191;SDS011;43052;52.588;13.396;2023-04-20T01:51:31;10.00;;;7.93;;
57191;SDS011;43052;52.588;13.396;2023-04-20T01:53:58;11.68;;;7.93;;
57191;SDS011;43052;52.588;13.396;2023-04-20T01:56:24;10.93;;;8.10;;
57191;SDS011;43052;52.588;13.396;2023-04-20T01:58:49;11.25;;;8.90;;
57191;SDS011;43052;52.588;13.396;2023-04-20T02:01:14;10.32;;;7.20;;
57191;SDS011;43052;52.588;13.396;2023-04-20T02:03:39;11.48;;;8.27;;
57191;SDS011;43052;52.588;13.396;2023-04-20T02:06:05;12.10;;;8.23;;
57191;SDS011;43052;52.588;13.396;2023-04-20T02:08:31;11.32;;;8.90;;
57191;SDS011;43052;52.588;13.396;2023-04-20T02:10:57;11.18;;;8.30;;
57191;SDS011;43052;52.588;13.396;2023-04-20T02:13:22;12.20;;;8.73;;
57191;SDS011;43052;52.588;13.396;2023-04-20T02:15:47;12.70;;;9.48;;
57191;SDS011;43052;52.588;13.396;2023-04-20T02:18:12;13.77;;;9.73;;
57191;SDS011;43052;52.588;13.396;2023-04-20T02:20:40;12.70;;;9.77;;
57191;SDS011;43052;52.588;13.396;2023-04-20T02:23:05;12.73;;;9.13;;
57191;SDS011;43052;52.588;13.396;2023-04-20T02:25:30;14.20;;;10.60;;
57191;SDS011;43052;52.588;13.396;2023-04-20T02:27:55;14.77;;;10.50;;
57191;SDS011;43052;52.588;13.396;2023-04-20T02:30:21;13.80;;;10.52;;
57191;SDS011;43052;52.588;13.396;2023-04-20T02:32:46;14.40;;;10.77;;
57191;SDS011;43052;52.588;13.396;2023-04-20T02:35:11;14.60;;;10.82;;
57191;SDS011;43052;52.588;13.396;2023-04-20T02:37:36;13.57;;;9.57;;
57191;SDS011;43052;52.588;13.396;2023-04-20T02:40:02;14.57;;;11.38;;
57191;SDS011;43052;52.588;13.396;2023-04-20T02:42:28;16.23;;;12.10;;
57191;SDS011;43052;52.588;13.396;2023-04-20T02:44:54;19.05;;;12.00;;
57191;SDS011;43052;52.588;13.396;2023-04-20T02:47:19;15.93;;;11.93;;
57191;SDS011;43052;52.588;13.396;2023-04-20T02:49:45;16.70;;;11.93;;
57191;SDS011;43052;52.588;13.396;2023-04-20T02:52:11;19.27;;;13.13;;
57191;SDS011;43052;52.588;13.396;2023-04-20T02:54:36;16.58;;;12.80;;
57191;SDS011;43052;52.588;13.396;2023-04-20T02:57:01;16.92;;;13.13;;
57191;SDS011;43052;52.588;13.396;2023-04-20T02:59:27;18.38;;;13.07;;
57191;SDS011;43052;52.588;13.396;2023-04-20T03:01:52;20.65;;;14.75;;
57191;SDS011;43052;52.588;13.396;2023-04-20T03:04:18;21.50;;;14.20;;
57191;SDS011;43052;52.588;13.396;2023-04-20T03:06:43;22.77;;;14.95;;
57191;SDS011;43052;52.588;13.396;2023-04-20T03:09:09;25.02;;;15.88;;
57191;SDS011;43052;52.588;13.396;2023-04-20T03:11:34;23.45;;;15.93;;
57191;SDS011;43052;52.588;13.396;2023-04-20T03:13:59;27.05;;;15.75;;
57191;SDS011;43052;52.588;13.396;2023-04-20T03:16:24;28.23;;;18.60;;
57191;SDS011;43052;52.588;13.396;2023-04-20T03:18:50;26.85;;;15.82;;
57191;SDS011;43052;52.588;13.396;2023-04-20T03:21:15;25.73;;;17.58;;
57191;SDS011;43052;52.588;13.396;2023-04-20T03:23:40;31.52;;;18.10;;
57191;SDS011;43052;52.588;13.396;2023-04-20T03:26:05;30.15;;;17.42;;
57191;SDS011;43052;52.588;13.396;2023-04-20T03:28:31;27.70;;;17.92;;
57191;SDS011;43052;52.588;13.396;2023-04-20T03:30:56;26.20;;;17.52;;
57191;SDS011;43052;52.588;13.396;2023-04-20T03:33:21;30.40;;;19.90;;
57191;SDS011;43052;52.588;13.396;2023-04-20T03:35:46;30.08;;;19.02;;
57191;SDS011;43052;52.588;13.396;2023-04-20T03:38:12;25.63;;;18.05;;
57191;SDS011;43052;52.588;13.396;2023-04-20T03:40:37;29.13;;;17.52;;
57191;SDS011;43052;52.588;13.396;2023-04-20T03:43:02;34.33;;;19.67;;
57191;SDS011;43052;52.588;13.396;2023-04-20T03:45:27;28.42;;;17.70;;
57191;SDS011;43052;52.588;13.396;2023-04-20T03:47:52;27.75;;;18.90;;
57191;SDS011;43052;52.588;13.396;2023-04-20T03:50:18;27.58;;;17.88;;
57191;SDS011;43052;52.588;13.396;2023-04-20T03:52:43;25.35;;;16.63;;
57191;SDS011;43052;52.588;13.396;2023-04-20T03:55:08;31.17;;;17.13;;
57191;SDS011;43052;52.588;13.396;2023-04-20T03:57:33;31.30;;;19.10;;
57191;SDS011;43052;52.588;13.396;2023-04-20T03:59:59;34.00;;;19.02;;
57191;SDS011;43052;52.588;13.396;2023-04-20T04:02:24;29.08;;;19.45;;
57191;SDS011;43052;52.588;13.396;2023-04-20T04:04:49;34.80;;;19.77;;
57191;SDS011;43052;52.588;13.396;2023-04-20T04:07:15;32.97;;;19.60;;
57191;SDS011;43052;52.588;13.396;2023-04-20T04:09:40;31.52;;;20.40;;
57191;SDS011;43052;52.588;13.396;2023-04-20T04:12:05;31.40;;;17.83;;
57191;SDS011;43052;52.588;13.396;2023-04-20T04:14:31;31.15;;;18.77;;
57191;SDS011;43052;52.588;13.396;2023-04-20T04:16:57;34.40;;;19.15;;
57191;SDS011;43052;52.588;13.396;2023-04-20T04:19:22;35.17;;;20.85;;
57191;SDS011;43052;52.588;13.396;2023-04-20T04:21:48;34.15;;;20.80;;
57191;SDS011;43052;52.588;13.396;2023-04-20T04:24:13;34.33;;;20.38;;
57191;SDS011;43052;52.588;13.396;2023-04-20T04:26:39;37.75;;;21.27;;
57191;SDS011;43052;52.588;13.396;2023-04-20T04:29:04;36.40;;;20.88;;
57191;SDS011;43052;52.588;13.396;2023-04-20T04:31:30;33.92;;;19.88;;
57191;SDS011;43052;52.588;13.396;2023-04-20T04:33:58;38.30;;;22.52;;
57191;SDS011;43052;52.588;13.396;2023-04-20T04:36:25;38.80;;;20.85;;
57191;SDS011;43052;52.588;13.396;2023-04-20T04:38:50;36.58;;;21.70;;
57191;SDS011;43052;52.588;13.396;2023-04-20T04:41:16;34.95;;;20.10;;
57191;SDS011;43052;52.588;13.396;2023-04-20T04:43:42;36.55;;;19.40;;
57191;SDS011;43052;52.588;13.396;2023-04-20T04:46:08;35.83;;;20.10;;
57191;SDS011;43052;52.588;13.396;2023-04-20T04:48:33;35.20;;;21.30;;
57191;SDS011;43052;52.588;13.396;2023-04-20T04:50:59;31.70;;;19.15;;
57191;SDS011;43052;52.588;13.396;2023-04-20T04:53:25;34.70;;;21.23;;
57191;SDS011;43052;52.588;13.396;2023-04-20T04:55:50;40.97;;;21.92;;
57191;SDS011;43052;52.588;13.396;2023-04-20T04:58:15;35.83;;;19.63;;
57191;SDS011;43052;52.588;13.396;2023-04-20T05:00:41;34.78;;;21.20;;
57191;SDS011;43052;52.588;13.396;2023-04-20T05:03:06;35.50;;;19.60;;
57191;SDS011;43052;52.588;13.396;2023-04-20T05:05:31;36.15;;;21.90;;
57191;SDS011;43052;52.588;13.396;2023-04-20T05:07:57;32.80;;;20.55;;
57191;SDS011;43052;52.588;13.396;2023-04-20T05:10:22;31.90;;;20.50;;
57191;SDS011;43052;52.588;13.396;2023-04-20T05:12:47;33.38;;;18.95;;
57191;SDS011;43052;52.588;13.396;2023-04-20T05:15:13;30.90;;;19.05;;
57191;SDS011;43052;52.588;13.396;2023-04-20T05:17:38;35.22;;;20.25;;
57191;SDS011;43052;52.588;13.396;2023-04-20T05:20:03;28.52;;;17.15;;
57191;SDS011;43052;52.588;13.396;2023-04-20T05:22:30;29.33;;;18.13;;
57191;SDS011;43052;52.588;13.396;2023-04-20T05:24:56;31.50;;;19.13;;
57191;SDS011;43052;52.588;13.396;2023-04-20T05:27:22;27.13;;;16.58;;
57191;SDS011;43052;52.588;13.396;2023-04-20T05:29:47;30.42;;;17.55;;
57191;SDS011;43052;52.588;13.396;2023-04-20T05:32:12;30.27;;;18.17;;
57191;SDS011;43052;52.588;13.396;2023-04-20T05:34:37;28.02;;;16.73;;
57191;SDS011;43052;52.588;13.396;2023-04-20T05:37:03;24.58;;;16.63;;
57191;SDS011;43052;52.588;13.396;2023-04-20T05:39:29;26.17;;;16.27;;
57191;SDS011;43052;52.588;13.396;2023-04-20T05:41:54;23.90;;;14.82;;
57191;SDS011;43052;52.588;13.396;2023-04-20T05:44:20;24.77;;;15.27;;
57191;SDS011;43052;52.588;13.396;2023-04-20T05:46:46;24.38;;;15.02;;
57191;SDS011;43052;52.588;13.396;2023-04-20T05:49:11;25.63;;;15.68;;
57191;SDS011;43052;52.588;13.396;2023-04-20T05:51:36;23.90;;;15.05;;
57191;SDS011;43052;52.588;13.396;2023-04-20T05:54:02;22.00;;;11.75;;
57191;SDS011;43052;52.588;13.396;2023-04-20T05:56:27;24.35;;;14.45;;
57191;SDS011;43052;52.588;13.396;2023-04-20T05:58:53;21.55;;;14.15;;
57191;SDS011;43052;52.588;13.396;2023-04-20T06:01:19;23.45;;;14.98;;
57191;SDS011;43052;52.588;13.396;2023-04-20T06:03:45;22.23;;;15.15;;
57191;SDS011;43052;52.588;13.396;2023-04-20T06:06:11;23.65;;;15.77;;
57191;SDS011;43052;52.588;13.396;2023-04-20T06:08:36;22.15;;;13.80;;
57191;SDS011;43052;52.588;13.396;2023-04-20T06:11:01;23.05;;;14.07;;
57191;SDS011;43052;52.588;13.396;2023-04-20T06:13:27;22.95;;;14.55;;
57191;SDS011;43052;52.588;13.396;2023-04-20T06:15:52;22.33;;;15.38;;
57191;SDS011;43052;52.588;13.396;2023-04-20T06:18:17;22.52;;;14.10;;
57191;SDS011;43052;52.588;13.396;2023-04-20T06:20:43;22.92;;;15.48;;
57191;SDS011;43052;52.588;13.396;2023-04-20T06:23:08;21.70;;;13.82;;
57191;SDS011;43052;52.588;13.396;2023-04-20T06:25:37;20.38;;;12.80;;
57191;SDS011;43052;52.588;13.396;2023-04-20T06:28:03;22.70;;;13.75;;
57191;SDS011;43052;52.588;13.396;2023-04-20T06:30:29;19.85;;;11.68;;
57191;SDS011;43052;52.588;13.396;2023-04-20T06:32:54;21.27;;;14.23;;
57191;SDS011;43052;52.588;13.396;2023-04-20T06:35:20;21.98;;;14.82;;
57191;SDS011;43052;52.588;13.396;2023-04-20T06:37:47;19.35;;;12.40;;
57191;SDS011;43052;52.588;13.396;2023-04-20T06:40:12;22.70;;;16.00;;
57191;SDS011;43052;52.588;13.396;2023-04-20T06:42:38;23.08;;;14.55;;
57191;SDS011;43052;52.588;13.396;2023-04-20T06:45:04;21.25;;;13.27;;
57191;SDS011;43052;52.588;13.396;2023-04-20T06:47:30;22.83;;;15.77;;
57191;SDS011;43052;52.588;13.396;2023-04-20T06:49:57;23.70;;;14.57;;
57191;SDS011;43052;52.588;13.396;2023-04-20T06:52:22;23.63;;;14.00;;
57191;SDS011;43052;52.588;13.396;2023-04-20T06:54:48;23.08;;;15.00;;
57191;SDS011;43052;52.588;13.396;2023-04-20T06:57:13;21.27;;;14.13;;
57191;SDS011;43052;52.588;13.396;2023-04-20T06:59:38;23.73;;;15.57;;
57191;SDS011;43052;52.588;13.396;2023-04-20T07:02:04;16.48;;;11.07;;
57191;SDS011;43052;52.588;13.396;2023-04-20T07:04:30;21.70;;;14.07;;
57191;SDS011;43052;52.588;13.396;2023-04-20T07:06:55;20.52;;;13.48;;
57191;SDS011;43052;52.588;13.396;2023-04-20T07:09:20;19.70;;;12.27;;
57191;SDS011;43052;52.588;13.396;2023-04-20T07:11:46;18.42;;;12.48;;
57191;SDS011;43052;52.588;13.396;2023-04-20T07:14:12;15.73;;;10.50;;
57191;SDS011;43052;52.588;13.396;2023-04-20T07:16:37;16.90;;;12.57;;
57191;SDS011;43052;52.588;13.396;2023-04-20T07:19:02;14.95;;;11.07;;
57191;SDS011;43052;52.588;13.396;2023-04-20T07:21:27;19.13;;;12.80;;
57191;SDS011;43052;52.588;13.396;2023-04-20T07:23:54;17.17;;;12.00;;
57191;SDS011;43052;52.588;13.396;2023-04-20T07:26:22;16.23;;;11.98;;
57191;SDS011;43052;52.588;13.396;2023-04-20T07:28:47;17.15;;;11.95;;
57191;SDS011;43052;52.588;13.396;2023-04-20T07:31:13;15.57;;;11.30;;
57191;SDS011;43052;52.588;13.396;2023-04-20T07:33:38;17.20;;;11.68;;
57191;SDS011;43052;52.588;13.396;2023-04-20T07:36:03;17.58;;;11.93;;
57191;SDS011;43052;52.588;13.396;2023-04-20T07:38:30;18.05;;;12.25;;
57191;SDS011;43052;52.588;13.396;2023-04-20T07:40:55;16.35;;;10.40;;
57191;SDS011;43052;52.588;13.396;2023-04-20T07:43:21;16.20;;;10.80;;
57191;SDS011;43052;52.588;13.396;2023-04-20T07:45:46;15.60;;;10.18;;
57191;SDS011;43052;52.588;13.396;2023-04-20T07:48:12;15.02;;;10.18;;
57191;SDS011;43052;52.588;13.396;2023-04-20T07:50:37;18.95;;;12.27;;
57191;SDS011;43052;52.588;13.396;2023-04-20T07:53:03;16.00;;;10.70;;
57191;SDS011;43052;52.588;13.396;2023-04-20T07:55:28;15.63;;;10.20;;
57191;SDS011;43052;52.588;13.396;2023-04-20T07:57:53;18.95;;;12.55;;
57191;SDS011;43052;52.588;13.396;2023-04-20T08:00:20;18.42;;;12.40;;
57191;SDS011;43052;52.588;13.396;2023-04-20T08:02:45;15.93;;;10.20;;
57191;SDS011;43052;52.588;13.396;2023-04-20T08:05:10;17.88;;;11.43;;
57191;SDS011;43052;52.588;13.396;2023-04-20T08:07:36;17.73;;;10.77;;
57191;SDS011;43052;52.588;13.396;2023-04-20T08:10:01;17.13;;;11.55;;
57191;SDS011;43052;52.588;13.396;2023-04-20T08:12:26;18.90;;;12.07;;
57191;SDS011;43052;52.588;13.396;2023-04-20T08:14:52;19.67;;;12.00;;
57191;SDS011;43052;52.588;13.396;2023-04-20T08:17:17;14.20;;;8.80;;
57191;SDS011;43052;52.588;13.396;2023-04-20T08:19:42;17.92;;;11.70;;
57191;SDS011;43052;52.588;13.396;2023-04-20T08:22:08;17.10;;;11.60;;
57191;SDS011;43052;52.588;13.396;2023-04-20T08:24:36;17.33;;;11.32;;
57191;SDS011;43052;52.588;13.396;2023-04-20T08:27:01;17.15;;;12.38;;
57191;SDS011;43052;52.588;13.396;2023-04-20T08:29:26;18.33;;;11.25;;
57191;SDS011;43052;52.588;13.396;2023-04-20T08:31:51;15.85;;;10.23;;
57191;SDS011;43052;52.588;13.396;2023-04-20T08:34:17;16.30;;;11.57;;
57191;SDS011;43052;52.588;13.396;2023-04-20T08:36:42;17.50;;;11.43;;
57191;SDS011;43052;52.588;13.396;2023-04-20T08:39:11;14.38;;;9.23;;
57191;SDS011;43052;52.588;13.396;2023-04-20T08:41:38;18.02;;;12.20;;
57191;SDS011;43052;52.588;13.396;2023-04-20T08:44:04;19.50;;;13.57;;
57191;SDS011;43052;52.588;13.396;2023-04-20T08:46:30;20.48;;;12.90;;
57191;SDS011;43052;52.588;13.396;2023-04-20T08:48:57;17.30;;;12.00;;
57191;SDS011;43052;52.588;13.396;2023-04-20T08:51:24;19.40;;;13.52;;
57191;SDS011;43052;52.588;13.396;2023-04-20T08:53:50;17.23;;;11.27;;
57191;SDS011;43052;52.588;13.396;2023-04-20T08:56:15;19.60;;;13.68;;
57191;SDS011;43052;52.588;13.396;2023-04-20T08:58:40;20.38;;;13.15;;
57191;SDS011;43052;52.588;13.396;2023-04-20T09:01:09;18.80;;;12.88;;
57191;SDS011;43052;52.588;13.396;2023-04-20T09:03:37;18.10;;;13.00;;
57191;SDS011;43052;52.588;13.396;2023-04-20T09:06:04;19.05;;;14.23;;
57191;SDS011;43052;52.588;13.396;2023-04-20T09:08:34;19.25;;;14.00;;
57191;SDS011;43052;52.588;13.396;2023-04-20T09:11:01;19.88;;;13.27;;
57191;SDS011;43052;52.588;13.396;2023-04-20T09:13:26;19.48;;;12.90;;
57191;SDS011;43052;52.588;13.396;2023-04-20T09:15:53;21.80;;;12.75;;
57191;SDS011;43052;52.588;13.396;2023-04-20T09:18:18;18.58;;;10.85;;
57191;SDS011;43052;52.588;13.396;2023-04-20T09:20:43;18.55;;;12.52;;
57191;SDS011;43052;52.588;13.396;2023-04-20T09:23:18;20.75;;;13.60;;
57191;SDS011;43052;52.588;13.396;2023-04-20T09:25:50;19.02;;;13.82;;
57191;SDS011;43052;52.588;13.396;2023-04-20T09:28:17;19.83;;;13.73;;
57191;SDS011;43052;52.588;13.396;2023-04-20T09:30:45;23.10;;;14.57;;
57191;SDS011;43052;52.588;13.396;2023-04-20T09:33:12;19.40;;;13.25;;
57191;SDS011;43052;52.588;13.396;2023-04-20T09:35:41;18.73;;;13.05;;
57191;SDS011;43052;52.588;13.396;2023-04-20T09:38:08;18.10;;;12.57;;
57191;SDS011;43052;52.588;13.396;2023-04-20T09:40:34;17.40;;;12.18;;
57191;SDS011;43052;52.588;13.396;2023-04-20T09:43:06;16.92;;;12.35;;
57191;SDS011;43052;52.588;13.396;2023-04-20T09:45:34;15.80;;;11.48;;
57191;SDS011;43052;52.588;13.396;2023-04-20T09:48:05;18.20;;;13.52;;
57191;SDS011;43052;52.588;13.396;2023-04-20T09:50:31;17.48;;;12.25;;
57191;SDS011;43052;52.588;13.396;2023-04-20T09:53:00;16.83;;;12.32;;
57191;SDS011;43052;52.588;13.396;2023-04-20T09:55:26;15.25;;;11.20;;
57191;SDS011;43052;52.588;13.396;2023-04-20T09:57:52;15.57;;;11.60;;
57191;SDS011;43052;52.588;13.396;2023-04-20T10:00:18;16.52;;;11.32;;
57191;SDS011;43052;52.588;13.396;2023-04-20T10:02:45;13.95;;;10.45;;
57191;SDS011;43052;52.588;13.396;2023-04-20T10:05:12;13.48;;;10.35;;
57191;SDS011;43052;52.588;13.396;2023-04-20T10:07:37;12.95;;;9.75;;
57191;SDS011;43052;52.588;13.396;2023-04-20T10:10:12;14.07;;;9.88;;
57191;SDS011;43052;52.588;13.396;2023-04-20T10:12:45;12.35;;;9.68;;
57191;SDS011;43052;52.588;13.396;2023-04-20T10:15:11;12.30;;;9.10;;
57191;SDS011;43052;52.588;13.396;2023-04-20T10:17:37;14.30;;;10.38;;
57191;SDS011;43052;52.588;13.396;2023-04-20T10:20:02;15.15;;;12.90;;
57191;SDS011;43052;52.588;13.396;2023-04-20T10:22:29;12.70;;;9.50;;
57191;SDS011;43052;52.588;13.396;2023-04-20T10:24:59;13.25;;;10.40;;
57191;SDS011;43052;52.588;13.396;2023-04-20T10:27:26;12.23;;;9.38;;
57191;SDS011;43052;52.588;13.396;2023-04-20T10:29:51;10.45;;;7.68;;
57191;SDS011;43052;52.588;13.396;2023-04-20T10:32:23;11.15;;;8.50;;
57191;SDS011;43052;52.588;13.396;2023-04-20T10:34:59;11.60;;;9.57;;
57191;SDS011;43052;52.588;13.396;2023-04-20T10:37:26;11.27;;;8.25;;
57191;SDS011;43052;52.588;13.396;2023-04-20T10:39:51;10.30;;;7.85;;
57191;SDS011;43052;52.588;13.396;2023-04-20T10:42:17;13.60;;;9.52;;
57191;SDS011;43052;52.588;13.396;2023-04-20T10:44:48;11.45;;;8.55;;
57191;SDS011;43052;52.588;13.396;2023-04-20T10:47:14;10.02;;;7.80;;
57191;SDS011;43052;52.588;13.396;2023-04-20T10:49:40;10.75;;;8.43;;
57191;SDS011;43052;52.588;13.396;2023-04-20T10:52:05;10.52;;;8.35;;
57191;SDS011;43052;52.588;13.396;2023-04-20T10:54:37;12.43;;;9.43;;
57191;SDS011;43052;52.588;13.396;2023-04-20T10:57:04;11.57;;;8.75;;
57191;SDS011;43052;52.588;13.396;2023-04-20T10:59:30;12.65;;;9.43;;
57191;SDS011;43052;52.588;13.396;2023-04-20T11:01:56;11.25;;;9.07;;
57191;SDS011;43052;52.588;13.396;2023-04-20T11:04:31;13.73;;;9.70;;
57191;SDS011;43052;52.588;13.396;2023-04-20T11:07:04;11.60;;;9.57;;
57191;SDS011;43052;52.588;13.396;2023-04-20T11:09:34;12.93;;;10.00;;
57191;SDS011;43052;52.588;13.396;2023-04-20T11:12:08;11.60;;;9.80;;
57191;SDS011;43052;52.588;13.396;2023-04-20T11:14:49;12.30;;;9.52;;
57191;SDS011;43052;52.588;13.396;2023-04-20T11:17:16;14.18;;;10.63;;
57191;SDS011;43052;52.588;13.396;2023-04-20T11:19:41;12.60;;;10.50;;
57191;SDS011;43052;52.588;13.396;2023-04-20T11:22:06;13.93;;;11.13;;
57191;SDS011;43052;52.588;13.396;2023-04-20T11:24:32;12.63;;;10.90;;
57191;SDS011;43052;52.588;13.396;2023-04-20T11:26:58;16.20;;;11.90;;
57191;SDS011;43052;52.588;13.396;2023-04-20T11:29:29;14.93;;;11.25;;
57191;SDS011;43052;52.588;13.396;2023-04-20T11:31:57;14.93;;;11.65;;
57191;SDS011;43052;52.588;13.396;2023-04-20T11:34:23;14.10;;;11.40;;
57191;SDS011;43052;52.588;13.396;2023-04-20T11:36:49;14.02;;;10.38;;
57191;SDS011;43052;52.588;13.396;2023-04-20T11:39:27;16.42;;;12.30;;
57191;SDS011;43052;52.588;13.396;2023-04-20T11:41:56;14.35;;;11.75;;
57191;SDS011;43052;52.588;13.396;2023-04-20T11:44:22;16.17;;;11.85;;
57191;SDS011;43052;52.588;13.396;2023-04-20T11:46:48;14.60;;;12.07;;
57191;SDS011;43052;52.588;13.396;2023-04-20T11:49:17;17.58;;;12.35;;
57191;SDS011;43052;52.588;13.396;2023-04-20T11:51:43;17.88;;;12.02;;
57191;SDS011;43052;52.588;13.396;2023-04-20T11:54:09;16.67;;;12.68;;
57191;SDS011;43052;52.588;13.396;2023-04-20T11:56:35;15.77;;;12.70;;
57191;SDS011;43052;52.588;13.396;2023-04-20T11:59:01;16.13;;;12.85;;
57191;SDS011;43052;52.588;13.396;2023-04-20T12:01:26;14.52;;;12.30;;
57191;SDS011;43052;52.588;13.396;2023-04-20T12:03:51;14.43;;;10.90;;
57191;SDS011;43052;52.588;13.396;2023-04-20T12:06:19;13.65;;;9.80;;
57191;SDS011;43052;52.588;13.396;2023-04-20T12:08:44;16.25;;;12.52;;
57191;SDS011;43052;52.588;13.396;2023-04-20T12:11:11;16.13;;;12.13;;
57191;SDS011;43052;52.588;13.396;2023-04-20T12:13:37;14.88;;;11.55;;
57191;SDS011;43052;52.588;13.396;2023-04-20T12:16:02;12.48;;;9.80;;
57191;SDS011;43052;52.588;13.396;2023-04-20T12:18:27;15.80;;;11.88;;
57191;SDS011;43052;52.588;13.396;2023-04-20T12:20:53;13.48;;;10.30;;
57191;SDS011;43052;52.588;13.396;2023-04-20T12:23:18;15.80;;;11.65;;
57191;SDS011;43052;52.588;13.396;2023-04-20T12:25:43;16.40;;;12.50;;
57191;SDS011;43052;52.588;13.396;2023-04-20T12:28:08;15.32;;;12.50;;
57191;SDS011;43052;52.588;13.396;2023-04-20T12:30:34;14.45;;;10.35;;
57191;SDS011;43052;52.588;13.396;2023-04-20T12:33:01;13.52;;;11.85;;
57191;SDS011;43052;52.588;13.396;2023-04-20T12:35:27;15.68;;;12.85;;
57191;SDS011;43052;52.588;13.396;2023-04-20T12:37:52;11.10;;;9.02;;
57191;SDS011;43052;52.588;13.396;2023-04-20T12:40:18;14.38;;;9.82;;
57191;SDS011;43052;52.588;13.396;2023-04-20T12:42:43;14.88;;;10.20;;
57191;SDS011;43052;52.588;13.396;2023-04-20T12:45:08;16.83;;;12.07;;
57191;SDS011;43052;52.588;13.396;2023-04-20T12:47:34;16.60;;;12.85;;
57191;SDS011;43052;52.588;13.396;2023-04-20T12:49:59;11.27;;;8.18;;
57191;SDS011;43052;52.588;13.396;2023-04-20T12:52:25;14.95;;;10.32;;
57191;SDS011;43052;52.588;13.396;2023-04-20T12:54:50;14.32;;;9.77;;
57191;SDS011;43052;52.588;13.396;2023-04-20T12:57:16;15.23;;;12.73;;
57191;SDS011;43052;52.588;13.396;2023-04-20T12:59:41;15.82;;;11.65;;
57191;SDS011;43052;52.588;13.396;2023-04-20T13:02:06;13.23;;;11.27;;
57191;SDS011;43052;52.588;13.396;2023-04-20T13:04:32;15.07;;;11.40;;
57191;SDS011;43052;52.588;13.396;2023-04-20T13:06:57;14.35;;;10.20;;
57191;SDS011;43052;52.588;13.396;2023-04-20T13:09:22;12.65;;;10.38;;
57191;SDS011;43052;52.588;13.396;2023-04-20T13:11:50;14.27;;;11.18;;
57191;SDS011;43052;52.588;13.396;2023-04-20T13:14:16;14.77;;;12.43;;
57191;SDS011;43052;52.588;13.396;2023-04-20T13:16:41;13.68;;;8.57;;
57191;SDS011;43052;52.588;13.396;2023-04-20T13:19:06;13.85;;;10.43;;
57191;SDS011;43052;52.588;13.396;2023-04-20T13:21:32;16.20;;;10.00;;
57191;SDS011;43052;52.588;13.396;2023-04-20T13:23:57;13.20;;;9.13;;
57191;SDS011;43052;52.588;13.396;2023-04-20T13:26:22;13.40;;;8.82;;
57191;SDS011;43052;52.588;13.396;2023-04-20T13:28:48;15.20;;;10.65;;
57191;SDS011;43052;52.588;13.396;2023-04-20T13:31:13;11.80;;;9.45;;
57191;SDS011;43052;52.588;13.396;2023-04-20T13:33:38;13.20;;;11.15;;
57191;SDS011;43052;52.588;13.396;2023-04-20T13:36:04;13.90;;;10.50;;
57191;SDS011;43052;52.588;13.396;2023-04-20T13:38:29;12.55;;;9.30;;
57191;SDS011;43052;52.588;13.396;2023-04-20T13:40:54;14.50;;;9.63;;
57191;SDS011;43052;52.588;13.396;2023-04-20T13:43:19;15.63;;;10.77;;
57191;SDS011;43052;52.588;13.396;2023-04-20T13:45:45;14.38;;;10.65;;
57191;SDS011;43052;52.588;13.396;2023-04-20T13:48:10;11.77;;;8.43;;
57191;SDS011;43052;52.588;13.396;2023-04-20T13:50:35;10.43;;;8.13;;
57191;SDS011;43052;52.588;13.396;2023-04-20T13:53:01;13.25;;;8.65;;
57191;SDS011;43052;52.588;13.396;2023-04-20T13:55:26;12.75;;;9.63;;
57191;SDS011;43052;52.588;13.396;2023-04-20T13:57:52;13.98;;;9.68;;
57191;SDS011;43052;52.588;13.396;2023-04-20T14:00:17;14.80;;;10.43;;
57191;SDS011;43052;52.588;13.396;2023-04-20T14:02:43;12.93;;;10.02;;
57191;SDS011;43052;52.588;13.396;2023-04-20T14:05:09;11.40;;;9.30;;
57191;SDS011;43052;52.588;13.396;2023-04-20T14:07:35;11.93;;;7.55;;